Time;durP1;ratioP1;P1;durP2;ratioP2;P2;SDS_P1;SDS_P2;PMS_P1;PMS_P2;Temp;Humidity;BMP_temperature;BMP_pressure;BME280_temperature;BME280_humidity;BME280_pressure;Samples;Min_cycle;Max_cycle;Signal;HPM_P1;HPM_P2
2021/08/27 12:06:22;;;;;;;4.90;3.83;;;;;;;18.63;51.55;98931.59;2622704;47;20048;-71
2021/08/27 12:08:53;;;;;;;4.90;3.80;;;;;;;18.89;51.30;98932.84;2623079;47;20037;-70
2021/08/27 12:11:31;;;;;;;4.57;3.80;;;;;;;19.04;50.75;98943.81;2622984;54;20046;-70
2021/08/27 12:14:01;;;;;;;4.68;3.78;;;;;;;19.14;50.01;98937.78;2622038;54;20030;-72
2021/08/27 12:16:32;;;;;;;4.18;3.60;;;;;;;19.37;49.77;98928.75;2622315;39;20438;-71
2021/08/27 12:19:20;;;;;;;5.72;4.80;;;;;;;19.67;50.01;98925.69;2622248;54;20040;-70
2021/08/27 12:22:04;;;;;;;5.63;3.75;;;;;;;19.68;48.91;98927.34;2622250;54;20030;-70
2021/08/27 12:24:36;;;;;;;4.68;3.58;;;;;;;19.48;49.15;98919.00;2621754;54;20070;-69
2021/08/27 12:27:07;;;;;;;4.22;3.42;;;;;;;19.40;48.96;98920.22;2621117;54;20543;-70
2021/08/27 12:29:37;;;;;;;8.32;3.00;;;;;;;19.30;48.87;98920.06;2621650;54;20038;-70
2021/08/27 12:32:17;;;;;;;5.07;3.28;;;;;;;19.47;48.54;98912.81;2621644;54;20046;-70
2021/08/27 12:34:48;;;;;;;4.45;3.20;;;;;;;19.49;48.66;98912.56;2620163;47;20057;-69
2021/08/27 12:37:21;;;;;;;4.43;2.85;;;;;;;19.43;48.51;98911.69;2621416;54;20026;-69
2021/08/27 12:39:53;;;;;;;5.82;3.47;;;;;;;19.42;48.24;98903.88;2621273;54;20042;-68
2021/08/27 12:42:24;;;;;;;4.83;3.50;;;;;;;19.47;48.56;98904.78;2620704;54;20529;-70
2021/08/27 12:45:05;;;;;;;4.63;3.00;;;;;;;19.50;48.31;98909.63;2621666;54;20038;-70
2021/08/27 12:47:38;;;;;;;4.05;3.30;;;;;;;19.48;48.71;98901.03;2621425;54;20045;-69
2021/08/27 12:50:16;;;;;;;3.53;3.20;;;;;;;19.46;48.89;98903.13;2622314;54;20038;-69
2021/08/27 12:53:02;;;;;;;5.05;3.38;;;;;;;19.49;48.45;98902.66;2620932;54;20050;-69
2021/08/27 12:55:33;;;;;;;3.35;2.88;;;;;;;19.53;48.81;98902.97;2620678;54;20034;-68
2021/08/27 12:58:03;;;;;;;3.67;3.10;;;;;;;19.56;48.64;98907.84;2619615;54;20038;-70
2021/08/27 13:00:34;;;;;;;4.68;3.47;;;;;;;19.60;48.19;98914.31;2623264;54;20041;-69
2021/08/27 13:03:13;;;;;;;3.78;3.15;;;;;;;19.61;48.56;98913.28;2623329;54;20050;-70
2021/08/27 13:05:46;;;;;;;5.57;3.28;;;;;;;19.56;48.59;98902.47;2623402;54;20034;-70
2021/08/27 13:08:22;;;;;;;4.18;3.33;;;;;;;19.42;48.26;98907.38;2623106;54;20041;-70
2021/08/27 13:11:08;;;;;;;4.97;3.58;;;;;;;19.26;48.99;98910.91;2621962;39;20438;-70
2021/08/27 13:13:42;;;;;;;5.00;3.50;;;;;;;19.25;48.49;98903.91;2622038;54;20034;-70
2021/08/27 13:16:14;;;;;;;3.78;2.90;;;;;;;19.32;48.63;98901.88;2622060;47;20589;-70
2021/08/27 13:18:47;;;;;;;4.40;2.95;;;;;;;19.60;48.63;98906.28;2623358;39;20414;-70
2021/08/27 13:21:19;;;;;;;3.63;3.03;;;;;;;19.93;47.52;98909.94;2622311;39;20441;-69
2021/08/27 13:24:10;;;;;;;4.20;2.42;;;;;;;19.81;47.83;98909.25;2620879;54;20029;-70
2021/08/27 13:26:41;;;;;;;3.63;3.30;;;;;;;19.74;48.40;98906.75;2623970;39;20490;-69
2021/08/27 13:29:11;;;;;;;3.88;3.50;;;;;;;19.66;47.97;98899.13;2623556;54;20117;-70
2021/08/27 13:31:40;;;;;;;5.03;3.90;;;;;;;19.54;48.27;98900.03;2622240;54;20034;-70
2021/08/27 13:34:10;;;;;;;4.13;3.47;;;;;;;19.35;49.08;98893.34;2622356;54;20038;-69
2021/08/27 13:36:40;;;;;;;4.35;3.67;;;;;;;19.22;50.12;98896.38;2623965;39;20447;-69
2021/08/27 13:39:12;;;;;;;3.95;3.50;;;;;;;19.14;50.58;98897.59;2624821;54;20023;-69
2021/08/27 13:41:43;;;;;;;5.53;3.80;;;;;;;19.04;50.59;98892.91;2624256;54;20030;-70
2021/08/27 13:44:13;;;;;;;3.90;3.33;;;;;;;18.93;51.33;98899.16;2624461;54;20042;-70
2021/08/27 13:46:43;;;;;;;5.95;3.17;;;;;;;18.94;51.38;98899.97;2623131;54;20041;-70
2021/08/27 13:49:12;;;;;;;3.58;2.95;;;;;;;18.88;51.36;98893.72;2622978;39;20485;-70
2021/08/27 13:51:42;;;;;;;3.42;2.67;;;;;;;18.94;51.08;98895.44;2622750;54;20042;-70
2021/08/27 13:54:15;;;;;;;4.05;2.63;;;;;;;18.76;50.67;98896.47;2622522;54;20030;-71
2021/08/27 13:56:45;;;;;;;2.15;1.98;;;;;;;18.65;51.69;98891.97;2622197;54;20042;-70
2021/08/27 13:59:14;;;;;;;2.70;2.40;;;;;;;18.49;52.19;98887.41;2620618;39;20438;-70
2021/08/27 14:01:44;;;;;;;2.55;2.35;;;;;;;18.53;52.86;98891.25;2622995;54;20034;-70
2021/08/27 14:04:14;;;;;;;4.22;2.67;;;;;;;18.60;52.76;98889.22;2623194;54;20054;-69
2021/08/27 14:06:43;;;;;;;3.75;2.83;;;;;;;18.71;53.24;98891.06;2622494;54;20031;-70
2021/08/27 14:09:16;;;;;;;3.50;3.20;;;;;;;18.71;53.33;98885.69;2623249;54;20038;-70
2021/08/27 14:11:45;;;;;;;2.85;2.55;;;;;;;18.73;53.18;98890.81;2622777;47;20111;-70
2021/08/27 14:14:15;;;;;;;7.55;2.33;;;;;;;18.71;53.30;98891.06;2623157;54;20030;-70
2021/08/27 14:16:45;;;;;;;3.63;2.65;;;;;;;18.66;53.47;98888.28;2622596;54;20031;-70
2021/08/27 14:19:23;;;;;;;2.65;2.33;;;;;;;18.61;54.38;98884.69;2623061;54;20038;-70
2021/08/27 14:21:53;;;;;;;3.55;2.20;;;;;;;18.53;54.70;98883.22;2623176;54;20023;-70
2021/08/27 14:24:25;;;;;;;3.22;2.78;;;;;;;18.43;54.70;98891.09;2623466;54;20026;-70
2021/08/27 14:26:55;;;;;;;4.75;2.53;;;;;;;18.34;55.71;98896.03;2623795;54;20023;-70
2021/08/27 14:29:25;;;;;;;6.03;2.83;;;;;;;18.32;57.24;98898.09;2623758;54;20035;-70
2021/08/27 14:31:55;;;;;;;4.38;2.85;;;;;;;18.34;58.54;98895.22;2622972;54;20553;-70
2021/08/27 14:34:25;;;;;;;4.90;2.90;;;;;;;18.24;59.24;98901.97;2623698;54;20038;-70
2021/08/27 14:36:54;;;;;;;4.97;3.00;;;;;;;18.29;60.00;98893.25;2622893;54;20549;-70
2021/08/27 14:39:26;;;;;;;4.53;2.95;;;;;;;18.19;60.12;98893.06;2622263;54;20035;-69
2021/08/27 14:41:56;;;;;;;4.57;3.00;;;;;;;18.26;60.39;98889.19;2619836;47;20081;-70
2021/08/27 14:44:26;;;;;;;4.50;2.65;;;;;;;18.21;60.08;98885.63;2619640;54;20030;-70
2021/08/27 14:46:55;;;;;;;4.88;2.67;;;;;;;18.28;59.80;98884.41;2619682;54;20031;-69
2021/08/27 14:49:30;;;;;;;4.28;2.47;;;;;;;18.18;58.73;98872.72;2620759;39;20403;-69
2021/08/27 14:52:00;;;;;;;2.85;2.10;;;;;;;18.16;58.00;98864.09;2621289;54;20038;-69
2021/08/27 14:54:32;;;;;;;5.78;2.30;;;;;;;18.22;57.65;98863.97;2620752;47;20033;-69
2021/08/27 14:57:02;;;;;;;5.55;2.50;;;;;;;18.21;57.82;98870.38;2623082;54;20027;-69
2021/08/27 14:59:31;;;;;;;4.63;3.05;;;;;;;18.29;57.88;98874.53;2623753;54;20546;-69
2021/08/27 15:02:01;;;;;;;7.63;3.55;;;;;;;18.48;57.37;98875.91;2623742;54;20041;-69
2021/08/27 15:04:31;;;;;;;3.40;2.15;;;;;;;18.61;57.07;98871.28;2624198;46;20064;-69
2021/08/27 15:07:00;;;;;;;2.15;1.95;;;;;;;18.48;57.62;98875.91;2622902;47;20031;-68
2021/08/27 15:09:33;;;;;;;2.88;2.30;;;;;;;18.44;57.32;98871.28;2623450;54;20034;-69
2021/08/27 15:12:03;;;;;;;2.50;2.08;;;;;;;18.34;57.46;98868.44;2623109;46;20038;-69
2021/08/27 15:14:33;;;;;;;3.28;1.90;;;;;;;18.36;57.03;98877.03;2623670;54;20023;-69
2021/08/27 15:17:04;;;;;;;3.90;1.83;;;;;;;18.30;56.52;98876.16;2622486;47;20030;-69
2021/08/27 15:19:38;;;;;;;5.00;2.40;;;;;;;18.25;56.92;98881.41;2622682;54;20034;-68
2021/08/27 15:22:08;;;;;;;3.55;1.92;;;;;;;18.04;57.29;98880.19;2622565;54;20511;-69
2021/08/27 15:24:40;;;;;;;3.75;2.00;;;;;;;17.86;57.89;98877.72;2622088;54;20034;-68
2021/08/27 15:27:10;;;;;;;2.72;1.85;;;;;;;17.80;58.38;98882.19;2622337;54;20031;-68
2021/08/27 15:29:40;;;;;;;3.22;2.35;;;;;;;17.76;58.99;98889.84;2622568;54;20035;-68
2021/08/27 15:32:11;;;;;;;3.05;2.35;;;;;;;17.74;59.60;98888.41;2623475;39;20454;-68
2021/08/27 15:34:41;;;;;;;4.32;2.25;;;;;;;17.70;59.60;98885.41;2623731;54;20023;-68
2021/08/27 15:37:11;;;;;;;5.57;2.40;;;;;;;17.64;60.11;98888.22;2623851;47;20042;-69
2021/08/27 15:39:43;;;;;;;6.15;2.70;;;;;;;17.58;61.03;98888.09;2625326;39;20422;-68
2021/08/27 15:42:13;;;;;;;3.55;2.80;;;;;;;17.49;62.23;98896.72;2625077;54;20034;-69
2021/08/27 15:44:43;;;;;;;3.72;2.75;;;;;;;17.45;62.78;98890.22;2624699;54;20030;-70
2021/08/27 15:47:15;;;;;;;6.07;2.65;;;;;;;17.48;63.66;98893.25;2624150;47;20038;-69
2021/08/27 15:49:45;;;;;;;3.67;2.42;;;;;;;17.53;63.82;98895.22;2625201;54;20037;-70
2021/08/27 15:52:15;;;;;;;3.88;2.72;;;;;;;17.50;64.04;98895.69;2624845;47;20022;-70
2021/08/27 15:54:47;;;;;;;5.35;2.78;;;;;;;17.49;64.34;98894.06;2624757;47;20082;-70
2021/08/27 15:57:18;;;;;;;5.05;3.20;;;;;;;17.42;64.78;98896.03;2624801;54;20026;-69
2021/08/27 15:59:49;;;;;;;4.95;3.33;;;;;;;17.33;65.75;98891.06;2625057;54;20038;-70
2021/08/27 16:02:18;;;;;;;5.85;3.40;;;;;;;17.34;66.63;98891.88;2624503;47;20031;-70
2021/08/27 16:04:48;;;;;;;7.45;3.03;;;;;;;17.36;66.83;98888.97;2624581;54;20042;-70
